Time;durP1;ratioP1;P1;durP2;ratioP2;P2;SDS_P1;SDS_P2;PMS_P1;PMS_P2;Temp;Humidity;BMP_temperature;BMP_pressure;BME280_temperature;BME280_humidity;BME280_pressure;Samples;Min_cycle;Max_cycle;Signal;HPM_P1;HPM_P2
2023/12/27 00:01:04;;;;;;;10.38;2.60;;;5.90;99.90;;;;;;4870071;29;20045;-61
2023/12/27 00:03:32;;;;;;;11.65;2.40;;;5.90;99.90;;;;;;4866311;29;20057;-62
2023/12/27 00:06:01;;;;;;;18.63;2.20;;;6.00;99.90;;;;;;4867298;29;20059;-61
2023/12/27 00:08:30;;;;;;;7.57;2.08;;;5.90;99.90;;;;;;4859725;29;20053;-62
2023/12/27 00:10:57;;;;;;;9.30;2.63;;;5.90;99.90;;;;;;4860402;29;20069;-62
2023/12/27 00:13:25;;;;;;;9.93;2.20;;;5.90;99.90;;;;;;4860372;29;20056;-61
2023/12/27 00:15:54;;;;;;;15.45;2.50;;;5.90;99.90;;;;;;4857579;29;20053;-62
2023/12/27 00:18:24;;;;;;;12.05;2.25;;;5.90;99.90;;;;;;4867692;29;20311;-61
2023/12/27 00:20:53;;;;;;;12.18;4.30;;;5.90;99.90;;;;;;4856403;29;20057;-61
2023/12/27 00:23:21;;;;;;;8.45;2.45;;;5.80;99.90;;;;;;4859452;29;20046;-61
2023/12/27 00:25:48;;;;;;;17.48;3.05;;;5.80;99.90;;;;;;4857180;29;20064;-61
2023/12/27 00:28:16;;;;;;;6.43;2.35;;;5.80;99.90;;;;;;4865032;29;20052;-62
2023/12/27 00:30:44;;;;;;;17.55;3.35;;;5.80;99.90;;;;;;4870626;29;20403;-62
2023/12/27 00:33:12;;;;;;;11.48;2.80;;;5.70;99.90;;;;;;4865087;29;20049;-64
2023/12/27 00:35:40;;;;;;;10.73;2.95;;;5.70;99.90;;;;;;4855145;29;20064;-62
2023/12/27 00:38:09;;;;;;;10.55;3.03;;;5.70;99.90;;;;;;4859992;29;20533;-61
2023/12/27 00:40:37;;;;;;;17.58;3.13;;;5.70;99.90;;;;;;4865134;29;20041;-62
2023/12/27 00:43:05;;;;;;;13.45;3.30;;;5.60;99.90;;;;;;4868805;29;20530;-61
2023/12/27 00:45:33;;;;;;;15.55;3.65;;;5.60;99.90;;;;;;4867210;29;20315;-61
2023/12/27 00:48:01;;;;;;;15.95;2.97;;;5.60;99.90;;;;;;4857391;29;20865;-63
2023/12/27 00:50:29;;;;;;;15.15;2.83;;;5.60;99.90;;;;;;4856555;29;20050;-63
2023/12/27 00:52:57;;;;;;;11.10;3.03;;;5.50;99.90;;;;;;4860787;29;20050;-63
2023/12/27 00:55:25;;;;;;;11.93;2.70;;;5.50;99.90;;;;;;4852058;29;20057;-64
2023/12/27 00:57:53;;;;;;;20.20;3.08;;;5.50;99.90;;;;;;4857220;29;20068;-63
2023/12/27 01:00:22;;;;;;;10.40;3.08;;;5.50;99.90;;;;;;4860123;29;20064;-62
2023/12/27 01:02:51;;;;;;;14.00;2.78;;;5.40;99.90;;;;;;4857177;29;20410;-62
2023/12/27 01:05:19;;;;;;;11.60;3.15;;;5.40;99.90;;;;;;4851911;29;20045;-63
2023/12/27 01:07:47;;;;;;;15.70;2.33;;;5.40;99.90;;;;;;4855311;29;20061;-62
2023/12/27 01:10:15;;;;;;;9.45;2.13;;;5.40;99.90;;;;;;4864187;29;20056;-63
2023/12/27 01:12:42;;;;;;;9.23;2.00;;;5.30;99.90;;;;;;4871000;29;20063;-62
2023/12/27 01:15:12;;;;;;;12.73;1.92;;;5.40;99.90;;;;;;4864627;29;20802;-62
2023/12/27 01:17:43;;;;;;;10.60;2.08;;;5.30;99.90;;;;;;4854487;29;20056;-61
2023/12/27 01:20:11;;;;;;;;;;;5.30;99.90;;;;;;4860490;29;20061;-62
2023/12/27 01:22:39;;;;;;;9.38;1.52;;;5.30;99.90;;;;;;4869236;29;19924;-62
2023/12/27 01:25:09;;;;;;;7.82;1.98;;;5.20;99.90;;;;;;4861869;29;20049;-64
2023/12/27 01:27:37;;;;;;;6.50;1.73;;;5.30;99.90;;;;;;4870433;29;20494;-62
2023/12/27 01:30:06;;;;;;;5.80;1.73;;;5.20;99.90;;;;;;4871498;29;20045;-70
2023/12/27 01:32:37;;;;;;;11.77;1.95;;;5.20;99.90;;;;;;4869655;29;20635;-63
2023/12/27 01:35:05;;;;;;;10.18;1.38;;;5.20;99.90;;;;;;4866883;29;20072;-62
2023/12/27 01:37:34;;;;;;;8.37;1.17;;;5.20;99.90;;;;;;4850507;29;20049;-63
2023/12/27 01:40:03;;;;;;;10.80;1.30;;;5.20;99.90;;;;;;4853870;29;20052;-62
2023/12/27 01:42:33;;;;;;;6.20;2.08;;;5.20;99.90;;;;;;4863324;29;20049;-62
2023/12/27 01:45:02;;;;;;;6.53;1.88;;;5.20;99.90;;;;;;4861738;29;20061;-63
2023/12/27 01:47:37;;;;;;;5.45;1.05;;;5.20;99.90;;;;;;4871778;29;20065;-64
2023/12/27 01:50:09;;;;;;;6.45;1.08;;;5.20;99.90;;;;;;4860278;29;20429;-63
2023/12/27 01:52:40;;;;;;;8.02;1.60;;;5.20;99.90;;;;;;4867532;29;20057;-62
2023/12/27 01:55:12;;;;;;;8.80;1.75;;;5.20;99.90;;;;;;4858183;29;20064;-62
2023/12/27 01:57:41;;;;;;;10.20;2.42;;;5.20;99.90;;;;;;4868346;29;20061;-63
2023/12/27 02:00:09;;;;;;;8.55;1.75;;;5.20;99.90;;;;;;4866701;29;20041;-62
2023/12/27 02:02:41;;;;;;;12.30;2.35;;;5.20;99.90;;;;;;4863042;29;20065;-63
2023/12/27 02:05:10;;;;;;;9.07;2.27;;;5.20;99.90;;;;;;4855833;29;20045;-63
2023/12/27 02:07:38;;;;;;;16.30;3.22;;;5.20;99.90;;;;;;4867277;29;20315;-63
2023/12/27 02:10:07;;;;;;;12.63;2.80;;;5.20;99.90;;;;;;4870367;29;20045;-63
2023/12/27 02:12:35;;;;;;;11.57;2.78;;;5.20;99.90;;;;;;4867710;29;20065;-63
2023/12/27 02:15:05;;;;;;;13.48;3.33;;;5.20;99.90;;;;;;4882206;29;20402;-70
2023/12/27 02:17:34;;;;;;;10.48;3.28;;;5.10;99.90;;;;;;4871072;29;20049;-69
2023/12/27 02:20:03;;;;;;;8.87;3.40;;;5.20;99.90;;;;;;4865382;29;20410;-61
2023/12/27 02:22:34;;;;;;;15.20;4.70;;;5.20;99.90;;;;;;4877279;29;20045;-62
2023/12/27 02:25:02;;;;;;;14.07;4.68;;;5.20;99.90;;;;;;4865015;29;20066;-66
2023/12/27 02:27:30;;;;;;;17.80;4.88;;;5.20;99.90;;;;;;4874802;29;20059;-63
2023/12/27 02:29:58;;;;;;;12.85;4.32;;;5.20;99.90;;;;;;4867250;29;20050;-71
2023/12/27 02:32:26;;;;;;;18.80;5.82;;;5.20;99.90;;;;;;4862120;29;20045;-62
2023/12/27 02:34:54;;;;;;;14.38;5.15;;;5.20;99.90;;;;;;4873606;29;20049;-66
2023/12/27 02:37:22;;;;;;;21.83;7.57;;;5.20;99.90;;;;;;4875467;29;20053;-63
2023/12/27 02:39:52;;;;;;;14.10;4.13;;;5.20;99.90;;;;;;4859180;29;20058;-65
2023/12/27 02:42:22;;;;;;;14.55;4.32;;;5.20;99.90;;;;;;4865177;29;20068;-62
2023/12/27 02:44:51;;;;;;;;;;;5.20;99.90;;;;;;4872340;29;20053;-62
2023/12/27 02:47:19;;;;;;;9.77;4.35;;;5.20;99.90;;;;;;4845938;29;19928;-60
2023/12/27 02:49:47;;;;;;;7.13;2.88;;;5.20;99.90;;;;;;4877820;29;20048;-68
2023/12/27 02:52:15;;;;;;;10.63;3.88;;;5.20;99.90;;;;;;4871342;29;20056;-59
2023/12/27 02:54:43;;;;;;;15.75;3.53;;;5.20;99.90;;;;;;4872855;29;20061;-60
2023/12/27 02:57:12;;;;;;;11.77;3.45;;;5.20;99.90;;;;;;4870139;29;20060;-61
2023/12/27 02:59:40;;;;;;;15.27;3.97;;;5.20;99.90;;;;;;4859700;29;20402;-59
2023/12/27 03:02:08;;;;;;;9.18;3.08;;;5.20;99.90;;;;;;4873001;29;20116;-61
2023/12/27 03:04:36;;;;;;;12.60;3.28;;;5.20;99.90;;;;;;4859581;29;20052;-60
2023/12/27 03:07:07;;;;;;;13.75;2.97;;;5.20;99.90;;;;;;4866019;29;20049;-60
2023/12/27 03:09:35;;;;;;;;;;;5.20;99.90;;;;;;4888636;29;20064;-61
2023/12/27 03:12:03;;;;;;;13.23;3.08;;;5.20;99.90;;;;;;4871270;29;19931;-60
2023/12/27 03:14:31;;;;;;;11.32;2.63;;;5.10;99.90;;;;;;4864651;29;20069;-62
2023/12/27 03:17:00;;;;;;;6.60;2.72;;;5.10;99.90;;;;;;4864066;29;20056;-60
2023/12/27 03:19:28;;;;;;;11.68;3.33;;;5.10;99.90;;;;;;4879604;29;20056;-62
2023/12/27 03:21:56;;;;;;;12.50;3.30;;;5.10;99.90;;;;;;4869515;29;20053;-60
2023/12/27 03:24:25;;;;;;;9.85;2.30;;;5.10;99.90;;;;;;4873707;29;20410;-61
2023/12/27 03:26:53;;;;;;;9.85;3.25;;;5.10;99.90;;;;;;4873804;29;20167;-60
2023/12/27 03:29:21;;;;;;;10.05;2.97;;;5.10;99.90;;;;;;4864699;29;20045;-60
2023/12/27 03:31:49;;;;;;;9.90;2.85;;;5.10;99.90;;;;;;4877892;29;20049;-62
2023/12/27 03:34:17;;;;;;;15.10;3.10;;;5.10;99.90;;;;;;4874632;29;20520;-68
2023/12/27 03:36:45;;;;;;;9.63;3.20;;;5.10;99.90;;;;;;4864531;29;20048;-63
2023/12/27 03:39:13;;;;;;;10.98;3.72;;;5.10;99.90;;;;;;4862139;29;20494;-61
2023/12/27 03:41:41;;;;;;;10.63;3.55;;;5.10;99.90;;;;;;4865119;29;20056;-61
2023/12/27 03:44:09;;;;;;;16.25;4.03;;;5.10;99.90;;;;;;4865376;29;20046;-60
2023/12/27 03:46:37;;;;;;;14.75;4.05;;;5.10;99.90;;;;;;4860614;29;20052;-59
2023/12/27 03:49:05;;;;;;;13.00;3.67;;;5.10;99.90;;;;;;4869192;29;20060;-60
2023/12/27 03:51:34;;;;;;;10.93;4.30;;;5.10;99.90;;;;;;4876424;29;20045;-62
2023/12/27 03:54:02;;;;;;;6.80;2.90;;;5.10;99.90;;;;;;4877115;29;20490;-62
2023/12/27 03:56:30;;;;;;;10.38;4.18;;;5.10;99.90;;;;;;4872771;29;20042;-60
2023/12/27 03:59:03;;;;;;;8.50;4.35;;;5.20;99.90;;;;;;4858051;29;20438;-59
2023/12/27 04:01:31;;;;;;;11.13;4.00;;;5.20;99.90;;;;;;4872647;29;20071;-61
2023/12/27 04:03:59;;;;;;;7.85;4.00;;;5.20;99.90;;;;;;4859216;29;20534;-59
2023/12/27 04:06:27;;;;;;;9.63;4.00;;;5.20;99.90;;;;;;4863240;29;20072;-59
2023/12/27 04:08:56;;;;;;;7.18;3.00;;;5.20;99.90;;;;;;4859372;29;20135;-59
2023/12/27 04:11:24;;;;;;;8.90;3.03;;;5.30;99.90;;;;;;4859811;29;20553;-60
2023/12/27 04:13:51;;;;;;;10.07;3.55;;;5.30;99.90;;;;;;4858112;29;20049;-63
2023/12/27 04:16:19;;;;;;;11.15;4.25;;;5.30;99.90;;;;;;4843375;29;20050;-59
2023/12/27 04:18:47;;;;;;;7.28;3.63;;;5.40;99.90;;;;;;4872517;29;20045;-59
2023/12/27 04:21:15;;;;;;;7.90;3.20;;;5.40;99.90;;;;;;4876576;29;20049;-61
2023/12/27 04:23:43;;;;;;;7.60;3.88;;;5.40;99.90;;;;;;4877396;29;20498;-59
2023/12/27 04:26:11;;;;;;;8.35;3.92;;;5.40;99.90;;;;;;4876547;29;20052;-59
2023/12/27 04:28:39;;;;;;;9.38;3.22;;;5.40;99.90;;;;;;4876293;29;20053;-59
2023/12/27 04:31:06;;;;;;;9.88;3.25;;;5.40;99.90;;;;;;4876621;29;20649;-59
2023/12/27 04:33:34;;;;;;;6.15;3.25;;;5.40;99.90;;;;;;4868756;29;20041;-59
2023/12/27 04:36:03;;;;;;;5.05;3.30;;;5.40;99.90;;;;;;4878342;29;20403;-59
2023/12/27 04:38:32;;;;;;;8.40;4.00;;;5.40;99.90;;;;;;4850477;29;20053;-59
2023/12/27 04:41:09;;;;;;;5.60;3.55;;;5.40;99.90;;;;;;4869943;29;20513;-61
2023/12/27 04:43:37;;;;;;;7.60;3.55;;;5.40;99.90;;;;;;4868091;29;20410;-59
2023/12/27 04:46:06;;;;;;;8.45;3.97;;;5.40;99.90;;;;;;4863037;29;20053;-61
2023/12/27 04:48:35;;;;;;;11.13;4.28;;;5.40;99.90;;;;;;4876985;29;20049;-59
2023/12/27 04:51:04;;;;;;;9.25;3.65;;;5.40;99.90;;;;;;4859444;29;20052;-58
2023/12/27 04:53:32;;;;;;;7.95;3.97;;;5.40;99.90;;;;;;4860054;29;20053;-64
2023/12/27 04:56:00;;;;;;;12.68;4.43;;;5.40;99.90;;;;;;4876825;29;20045;-62
2023/12/27 04:58:28;;;;;;;9.10;3.35;;;5.40;99.90;;;;;;4866102;29;20044;-59
2023/12/27 05:00:57;;;;;;;9.00;3.47;;;5.40;99.90;;;;;;4872163;29;20058;-62
2023/12/27 05:03:27;;;;;;;6.72;3.15;;;5.40;99.90;;;;;;4859331;29;20498;-63
2023/12/27 05:05:56;;;;;;;9.10;3.70;;;5.50;99.90;;;;;;4869154;29;20049;-63
2023/12/27 05:08:24;;;;;;;8.68;3.60;;;5.50;99.90;;;;;;4865188;29;20061;-60
2023/12/27 05:10:52;;;;;;;6.78;3.13;;;5.50;99.90;;;;;;4875031;29;20057;-59
2023/12/27 05:13:21;;;;;;;7.88;3.65;;;5.50;99.90;;;;;;4872268;29;20430;-61
2023/12/27 05:15:49;;;;;;;3.78;2.90;;;5.50;99.90;;;;;;4861204;29;20069;-64
2023/12/27 05:18:17;;;;;;;8.43;3.80;;;5.50;99.90;;;;;;4859570;29;20050;-60
2023/12/27 05:20:45;;;;;;;6.32;3.95;;;5.60;99.90;;;;;;4877068;29;20064;-61
2023/12/27 05:23:13;;;;;;;5.68;3.97;;;5.60;99.90;;;;;;4871989;29;20052;-66
2023/12/27 05:25:42;;;;;;;6.70;4.00;;;5.60;99.90;;;;;;4873071;29;20060;-62
2023/12/27 05:28:09;;;;;;;6.82;3.65;;;5.70;99.90;;;;;;4876199;29;20045;-61
2023/12/27 05:30:37;;;;;;;7.35;3.75;;;5.70;99.90;;;;;;4876329;29;20054;-61
2023/12/27 05:33:05;;;;;;;6.13;3.67;;;5.70;99.90;;;;;;4869428;29;20056;-61
2023/12/27 05:35:33;;;;;;;5.35;3.63;;;5.80;99.90;;;;;;4860964;29;20065;-63
2023/12/27 05:38:02;;;;;;;3.53;2.60;;;5.80;99.90;;;;;;4865820;29;20084;-63
2023/12/27 05:40:30;;;;;;;4.53;3.40;;;5.90;99.90;;;;;;4863299;29;20525;-65
2023/12/27 05:42:57;;;;;;;3.55;2.67;;;5.90;99.90;;;;;;4861572;29;20402;-65
2023/12/27 05:45:25;;;;;;;4.97;3.05;;;6.00;99.90;;;;;;4873166;29;20049;-63
2023/12/27 05:47:53;;;;;;;7.25;3.50;;;6.00;99.90;;;;;;4860779;29;20042;-64
2023/12/27 05:50:21;;;;;;;4.35;2.85;;;6.00;99.90;;;;;;4861897;29;20049;-63
2023/12/27 05:52:49;;;;;;;5.68;3.28;;;6.10;99.90;;;;;;4855868;29;20050;-64
2023/12/27 05:55:17;;;;;;;4.72;3.35;;;6.10;99.90;;;;;;4855144;29;20046;-61
2023/12/27 05:57:45;;;;;;;3.65;2.70;;;6.10;99.90;;;;;;4855107;29;20046;-59
2023/12/27 06:00:17;;;;;;;6.45;2.88;;;6.20;99.90;;;;;;4869632;29;20053;-60
2023/12/27 06:02:45;;;;;;;3.60;2.45;;;6.20;99.90;;;;;;4860262;29;20057;-66
2023/12/27 06:05:14;;;;;;;4.20;2.65;;;6.20;99.90;;;;;;4864392;29;20064;-64
2023/12/27 06:07:43;;;;;;;6.65;3.03;;;6.20;99.90;;;;;;4857840;29;20517;-60
2023/12/27 06:10:11;;;;;;;4.55;3.22;;;6.30;99.90;;;;;;4861547;29;20236;-60
2023/12/27 06:12:39;;;;;;;5.63;3.28;;;6.30;99.90;;;;;;4871850;29;20049;-62
2023/12/27 06:15:11;;;;;;;4.07;3.10;;;6.40;99.90;;;;;;4864425;29;20048;-63
2023/12/27 06:17:42;;;;;;;4.80;3.00;;;6.40;99.90;;;;;;4865008;29;20521;-65
2023/12/27 06:20:10;;;;;;;;;;;6.50;99.90;;;;;;4866262;29;20071;-61
2023/12/27 06:22:37;;;;;;;6.22;2.95;;;6.50;99.90;;;;;;4869840;29;19950;-61
2023/12/27 06:25:06;;;;;;;5.22;3.00;;;6.50;99.90;;;;;;4868450;29;20166;-60
2023/12/27 06:27:33;;;;;;;6.00;3.30;;;6.50;99.90;;;;;;4873509;29;20053;-61
2023/12/27 06:30:02;;;;;;;4.57;2.72;;;6.60;99.90;;;;;;4863782;29;20057;-63
2023/12/27 06:32:30;;;;;;;3.72;2.55;;;6.70;99.90;;;;;;4858450;29;20057;-62
2023/12/27 06:34:58;;;;;;;2.72;2.05;;;6.70;99.90;;;;;;4859514;29;20392;-60
2023/12/27 06:37:26;;;;;;;3.30;2.20;;;6.80;99.90;;;;;;4859042;29;20052;-62
2023/12/27 06:39:54;;;;;;;3.58;2.42;;;6.80;99.90;;;;;;4856395;29;20506;-60
2023/12/27 06:42:23;;;;;;;3.78;2.17;;;6.90;99.90;;;;;;4854606;29;20638;-62
2023/12/27 06:44:51;;;;;;;2.90;2.10;;;6.90;99.90;;;;;;4868925;29;20065;-62
2023/12/27 06:47:19;;;;;;;3.80;2.30;;;6.90;99.90;;;;;;4866806;29;20057;-60
2023/12/27 06:49:47;;;;;;;4.53;2.55;;;7.00;99.90;;;;;;4864365;29;20073;-63
2023/12/27 06:52:17;;;;;;;3.88;2.42;;;7.00;99.90;;;;;;4860674;29;20045;-60
2023/12/27 06:54:44;;;;;;;3.95;2.75;;;7.10;99.90;;;;;;4866989;29;20049;-61
2023/12/27 06:57:12;;;;;;;11.07;2.78;;;7.10;99.90;;;;;;4870018;29;20041;-59
2023/12/27 06:59:40;;;;;;;5.07;3.08;;;7.10;99.90;;;;;;4854775;29;20421;-60
2023/12/27 07:02:08;;;;;;;5.88;2.75;;;7.20;99.90;;;;;;4857017;29;20054;-60
2023/12/27 07:04:37;;;;;;;6.38;2.90;;;7.20;99.90;;;;;;4860239;29;20065;-61
2023/12/27 07:07:05;;;;;;;6.70;3.33;;;7.30;99.90;;;;;;4864668;29;20057;-60
2023/12/27 07:09:34;;;;;;;6.53;3.22;;;7.30;99.90;;;;;;4871760;29;20045;-59
2023/12/27 07:12:02;;;;;;;6.47;4.13;;;7.30;99.90;;;;;;4862480;29;20062;-59
2023/12/27 07:14:30;;;;;;;7.90;4.70;;;7.40;99.90;;;;;;4868714;29;20417;-61
2023/12/27 07:16:58;;;;;;;7.15;4.15;;;7.40;99.90;;;;;;4875471;29;20065;-60
2023/12/27 07:19:26;;;;;;;6.70;3.72;;;7.40;99.90;;;;;;4863631;29;20046;-62
2023/12/27 07:21:54;;;;;;;8.40;4.05;;;7.50;99.90;;;;;;4871205;29;20057;-65
2023/12/27 07:24:22;;;;;;;5.93;3.42;;;7.50;99.90;;;;;;4866943;29;20049;-60
2023/12/27 07:26:50;;;;;;;5.70;4.13;;;7.60;99.90;;;;;;4859757;29;20046;-60
2023/12/27 07:29:18;;;;;;;7.15;4.05;;;7.60;99.90;;;;;;4863681;29;20049;-60
2023/12/27 07:31:46;;;;;;;6.85;4.05;;;7.60;99.90;;;;;;4864795;29;20060;-61
2023/12/27 07:34:16;;;;;;;8.52;4.28;;;7.60;99.90;;;;;;4870287;29;20076;-60
2023/12/27 07:36:44;;;;;;;9.55;4.22;;;7.70;99.90;;;;;;4860633;29;20059;-63
2023/12/27 07:39:13;;;;;;;8.25;4.10;;;7.80;99.90;;;;;;4859612;29;20049;-63
2023/12/27 07:41:42;;;;;;;13.20;4.53;;;7.80;99.90;;;;;;4859301;29;20541;-68
2023/12/27 07:44:10;;;;;;;5.25;3.67;;;7.90;99.90;;;;;;4855690;29;20060;-66
2023/12/27 07:46:38;;;;;;;9.20;5.15;;;7.90;99.90;;;;;;4865088;29;20045;-67
2023/12/27 07:49:06;;;;;;;9.57;4.65;;;7.90;99.90;;;;;;4873863;29;20057;-60
2023/12/27 07:51:35;;;;;;;6.95;3.92;;;8.00;99.90;;;;;;4865520;29;20045;-62
2023/12/27 07:54:03;;;;;;;10.60;4.90;;;8.00;99.90;;;;;;4868453;29;20068;-67
2023/12/27 07:56:34;;;;;;;10.23;5.07;;;8.10;99.90;;;;;;4862727;29;20048;-66
2023/12/27 07:59:05;;;;;;;10.57;4.75;;;8.10;99.90;;;;;;4873183;29;20068;-60
2023/12/27 08:01:33;;;;;;;12.27;4.75;;;8.10;99.90;;;;;;4863228;29;20053;-65
2023/12/27 08:04:02;;;;;;;8.37;4.17;;;8.20;99.90;;;;;;4869264;29;20053;-65
2023/12/27 08:06:30;;;;;;;8.70;4.93;;;8.20;99.90;;;;;;4853392;29;20243;-69
2023/12/27 08:08:59;;;;;;;7.78;4.50;;;8.30;99.90;;;;;;4855939;29;20045;-64
2023/12/27 08:11:28;;;;;;;7.45;4.30;;;8.30;99.90;;;;;;4856084;29;20508;-69
2023/12/27 08:13:56;;;;;;;9.20;4.75;;;8.30;99.90;;;;;;4858687;29;20056;-65
2023/12/27 08:16:24;;;;;;;8.27;3.92;;;8.30;99.90;;;;;;4854426;29;20060;-67
2023/12/27 08:18:53;;;;;;;8.55;4.15;;;8.40;99.90;;;;;;4855938;29;20052;-66
2023/12/27 08:21:21;;;;;;;9.68;4.50;;;8.40;99.90;;;;;;4863487;29;20570;-69
2023/12/27 08:23:50;;;;;;;8.05;4.28;;;8.50;99.90;;;;;;4871473;29;20740;-69
2023/12/27 08:26:20;;;;;;;8.60;4.35;;;8.50;99.90;;;;;;4870827;29;20060;-69
2023/12/27 08:28:48;;;;;;;8.18;3.88;;;8.50;99.90;;;;;;4852750;29;20065;-68
2023/12/27 08:31:17;;;;;;;8.05;3.70;;;8.60;99.90;;;;;;4852826;29;20054;-67
2023/12/27 08:33:48;;;;;;;11.88;3.60;;;8.60;99.90;;;;;;4868378;29;20063;-67
2023/12/27 08:36:17;;;;;;;6.30;3.03;;;8.70;99.90;;;;;;4871050;29;20080;-65
2023/12/27 08:38:45;;;;;;;8.27;3.33;;;8.80;99.90;;;;;;4864997;29;20060;-63
2023/12/27 08:41:13;;;;;;;6.18;2.85;;;8.90;99.90;;;;;;4852910;29;20135;-61
2023/12/27 08:43:42;;;;;;;5.80;2.63;;;9.00;99.90;;;;;;4862629;29;20419;-62
2023/12/27 08:46:11;;;;;;;6.20;2.88;;;9.00;99.90;;;;;;4853040;29;20057;-63
2023/12/27 08:48:39;;;;;;;5.00;2.30;;;9.10;99.90;;;;;;4852475;29;20049;-61
2023/12/27 08:51:08;;;;;;;5.03;2.95;;;9.10;99.90;;;;;;4853022;29;20060;-62
2023/12/27 08:53:36;;;;;;;5.68;2.05;;;9.20;99.90;;;;;;4866562;29;20045;-60
2023/12/27 08:56:05;;;;;;;4.80;2.50;;;9.30;99.90;;;;;;4860581;29;20088;-67
2023/12/27 08:58:33;;;;;;;8.98;1.90;;;9.40;99.90;;;;;;4850999;29;20050;-61
2023/12/27 09:01:02;;;;;;;3.78;2.22;;;9.40;99.90;;;;;;4859624;29;20052;-66
2023/12/27 09:03:30;;;;;;;3.40;1.92;;;9.50;99.90;;;;;;4859337;29;20057;-61
2023/12/27 09:06:00;;;;;;;8.55;2.35;;;9.50;99.90;;;;;;4871762;29;20041;-60
2023/12/27 09:08:29;;;;;;;7.30;2.83;;;9.60;99.90;;;;;;4851862;29;20061;-62
2023/12/27 09:10:58;;;;;;;5.95;2.17;;;9.60;99.90;;;;;;4860245;29;20060;-60
2023/12/27 09:13:27;;;;;;;3.90;1.52;;;9.70;99.90;;;;;;4867521;29;20048;-60
2023/12/27 09:15:56;;;;;;;5.50;1.90;;;9.70;99.90;;;;;;4871246;29;20053;-62
2023/12/27 09:18:25;;;;;;;2.50;1.80;;;9.70;99.90;;;;;;4857074;29;20046;-62
2023/12/27 09:20:56;;;;;;;3.22;1.55;;;9.80;99.90;;;;;;4871533;29;20501;-60
2023/12/27 09:23:24;;;;;;;3.60;1.83;;;9.80;99.90;;;;;;4854882;29;20513;-62
2023/12/27 09:25:53;;;;;;;5.45;2.25;;;9.80;99.90;;;;;;4837674;29;20081;-61
2023/12/27 09:28:22;;;;;;;4.93;1.67;;;9.90;99.90;;;;;;4853286;29;20057;-60
2023/12/27 09:30:49;;;;;;;5.63;1.95;;;9.90;99.90;;;;;;4855068;29;20049;-62
2023/12/27 09:33:18;;;;;;;4.95;1.75;;;10.00;99.90;;;;;;4854057;29;20061;-59
2023/12/27 09:35:46;;;;;;;5.28;1.98;;;10.00;99.90;;;;;;4850090;29;20573;-63
2023/12/27 09:38:15;;;;;;;5.25;2.33;;;10.00;99.90;;;;;;4861710;29;20072;-60
2023/12/27 09:40:43;;;;;;;3.65;1.77;;;10.10;99.90;;;;;;4865370;29;20075;-62
2023/12/27 09:43:12;;;;;;;3.22;2.20;;;10.10;99.90;;;;;;4858282;29;20058;-61
2023/12/27 09:45:41;;;;;;;4.95;2.38;;;10.10;99.90;;;;;;4862755;29;20050;-62
2023/12/27 09:48:12;;;;;;;6.07;2.28;;;10.10;99.90;;;;;;4868403;29;20060;-62
2023/12/27 09:50:43;;;;;;;6.90;2.33;;;10.20;99.90;;;;;;4869767;29;20058;-62
2023/12/27 09:53:13;;;;;;;8.00;2.35;;;10.20;99.90;;;;;;4859086;29;20112;-62
2023/12/27 09:55:41;;;;;;;4.22;2.15;;;10.30;99.90;;;;;;4856527;29;20057;-62
2023/12/27 09:58:10;;;;;;;10.02;2.92;;;10.30;99.90;;;;;;4855759;29;20060;-62
2023/12/27 10:00:41;;;;;;;8.52;2.63;;;10.30;99.90;;;;;;4862484;29;20050;-63
2023/12/27 10:03:12;;;;;;;10.18;2.38;;;10.30;99.90;;;;;;4864753;29;20064;-62
2023/12/27 10:05:55;;;;;;;12.55;2.60;;;10.30;99.90;;;;;;4858842;29;20405;-62
2023/12/27 10:08:23;;;;;;;13.18;2.97;;;10.40;99.90;;;;;;4854398;29;20057;-62
2023/12/27 10:10:51;;;;;;;6.13;2.45;;;10.40;99.90;;;;;;4857146;29;20401;-62
2023/12/27 10:13:21;;;;;;;8.05;2.60;;;10.40;99.90;;;;;;4873687;29;20057;-62
2023/12/27 10:15:49;;;;;;;11.32;2.30;;;10.50;99.90;;;;;;4873073;29;20390;-62
2023/12/27 10:18:17;;;;;;;6.40;2.22;;;10.50;99.90;;;;;;4855683;29;20045;-62
2023/12/27 10:20:48;;;;;;;5.05;1.90;;;10.50;99.90;;;;;;4867171;29;20057;-63
2023/12/27 10:23:16;;;;;;;5.72;1.92;;;10.50;99.90;;;;;;4842566;29;20053;-67
2023/12/27 10:25:44;;;;;;;11.20;2.70;;;10.60;99.90;;;;;;4861150;29;20076;-62
2023/12/27 10:28:12;;;;;;;5.93;1.88;;;10.60;99.90;;;;;;4858525;29;20487;-63
2023/12/27 10:30:39;;;;;;;5.75;2.10;;;10.70;99.90;;;;;;4854040;29;20064;-63
2023/12/27 10:33:08;;;;;;;9.45;2.08;;;10.70;99.90;;;;;;4865954;29;20056;-62
2023/12/27 10:35:40;;;;;;;6.63;1.73;;;10.70;99.90;;;;;;4863367;29;20049;-66
2023/12/27 10:38:08;;;;;;;4.65;1.83;;;10.70;99.90;;;;;;4866859;29;20462;-65
2023/12/27 10:40:39;;;;;;;4.78;1.83;;;10.80;99.90;;;;;;4854004;29;20053;-63
2023/12/27 10:43:08;;;;;;;4.53;1.70;;;10.80;99.90;;;;;;4858267;29;20057;-63
2023/12/27 10:45:37;;;;;;;4.47;1.80;;;10.80;99.90;;;;;;4855222;29;20053;-63
2023/12/27 10:48:05;;;;;;;5.00;1.70;;;10.80;99.90;;;;;;4869079;29;20053;-62
2023/12/27 10:50:47;;;;;;;4.53;1.30;;;10.90;99.90;;;;;;4860664;29;20045;-65
2023/12/27 10:53:19;;;;;;;3.63;1.88;;;10.90;99.90;;;;;;4863137;29;20490;-63
2023/12/27 10:55:49;;;;;;;6.07;1.42;;;10.90;99.90;;;;;;4859921;29;20033;-62
2023/12/27 10:58:22;;;;;;;4.95;1.40;;;10.90;99.90;;;;;;4864818;29;20053;-62
2023/12/27 11:00:50;;;;;;;8.63;1.40;;;11.00;99.90;;;;;;4857023;29;20045;-63
2023/12/27 11:03:19;;;;;;;3.13;1.40;;;11.00;99.90;;;;;;4867648;29;20074;-63
2023/12/27 11:05:49;;;;;;;2.63;1.25;;;11.00;99.90;;;;;;4866657;29;20061;-62
2023/12/27 11:08:19;;;;;;;7.32;1.25;;;11.00;99.90;;;;;;4859084;29;20045;-62
2023/12/27 11:10:49;;;;;;;3.15;1.38;;;11.10;99.90;;;;;;4860085;29;20053;-61
2023/12/27 11:13:18;;;;;;;2.63;1.25;;;11.10;99.90;;;;;;4853453;29;20049;-62
2023/12/27 11:15:51;;;;;;;4.57;1.15;;;11.20;99.90;;;;;;4853822;29;20053;-63
2023/12/27 11:18:23;;;;;;;3.22;1.52;;;11.20;99.90;;;;;;4867754;29;20068;-67
2023/12/27 11:20:55;;;;;;;3.67;0.95;;;11.30;99.90;;;;;;4866134;29;20057;-62
2023/12/27 11:23:24;;;;;;;2.47;1.08;;;11.40;99.90;;;;;;4859022;29;20251;-63
2023/12/27 11:25:55;;;;;;;4.20;1.75;;;11.40;99.90;;;;;;4854310;29;20056;-62
2023/12/27 11:28:24;;;;;;;5.22;1.60;;;11.40;99.90;;;;;;4857696;29;20053;-64
2023/12/27 11:30:54;;;;;;;1.45;0.85;;;11.40;99.90;;;;;;4858538;29;20053;-62
2023/12/27 11:33:24;;;;;;;1.70;0.75;;;11.50;99.90;;;;;;4864343;29;20057;-64
2023/12/27 11:35:57;;;;;;;2.83;0.85;;;11.50;99.90;;;;;;4859454;29;20042;-62
2023/12/27 11:38:28;;;;;;;2.40;1.48;;;11.50;99.90;;;;;;4855153;29;20058;-62
2023/12/27 11:41:00;;;;;;;10.07;1.27;;;11.50;99.90;;;;;;4863599;29;20404;-63
2023/12/27 11:43:51;;;;;;;5.35;0.93;;;11.60;99.90;;;;;;4857680;29;20044;-63
2023/12/27 11:46:30;;;;;;;3.83;0.90;;;11.60;99.90;;;;;;4856625;29;20046;-62
2023/12/27 11:48:59;;;;;;;2.60;0.90;;;11.60;99.90;;;;;;4855050;29;20053;-64
2023/12/27 11:51:32;;;;;;;5.55;0.82;;;11.70;99.90;;;;;;4859323;29;20053;-62
2023/12/27 11:54:02;;;;;;;3.08;1.25;;;11.70;99.90;;;;;;4852125;29;20049;-62
2023/12/27 11:56:37;;;;;;;4.20;0.82;;;11.80;99.90;;;;;;4852620;29;20514;-63
2023/12/27 11:59:07;;;;;;;1.85;0.50;;;11.80;99.90;;;;;;4863235;29;20049;-62
2023/12/27 12:01:37;;;;;;;3.83;0.60;;;11.90;99.90;;;;;;4875305;29;20053;-62
2023/12/27 12:04:29;;;;;;;3.15;1.25;;;11.90;99.90;;;;;;4868599;29;20410;-62
2023/12/27 12:07:36;;;;;;;1.90;0.90;;;11.90;99.90;;;;;;4846394;29;20049;-63
2023/12/27 12:10:19;;;;;;;1.38;0.90;;;11.90;99.90;;;;;;4857919;29;20076;-62
2023/12/27 12:12:49;;;;;;;4.15;0.60;;;11.90;99.90;;;;;;4858234;29;20064;-62
2023/12/27 12:15:21;;;;;;;1.90;0.90;;;11.90;99.90;;;;;;4856101;29;20042;-61
2023/12/27 12:17:52;;;;;;;3.45;0.70;;;11.80;99.90;;;;;;4870548;29;20061;-67
2023/12/27 12:20:21;;;;;;;3.50;1.10;;;11.80;99.90;;;;;;4857408;29;20060;-63
2023/12/27 12:22:50;;;;;;;2.25;1.23;;;11.80;99.90;;;;;;4867368;29;20057;-62
2023/12/27 12:25:23;;;;;;;2.25;0.80;;;11.70;99.90;;;;;;4870887;29;20052;-61
2023/12/27 12:27:52;;;;;;;2.03;0.98;;;11.70;99.90;;;;;;4864423;29;20060;-59
2023/12/27 12:30:21;;;;;;;3.47;0.77;;;11.70;99.90;;;;;;4859303;29;20062;-59
2023/12/27 12:32:50;;;;;;;5.75;1.02;;;11.70;99.90;;;;;;4861353;29;20049;-70
2023/12/27 12:35:18;;;;;;;2.13;1.00;;;11.70;99.90;;;;;;4860359;29;20045;-68
2023/12/27 12:37:46;;;;;;;3.42;1.05;;;11.70;99.90;;;;;;4858731;29;20064;-66
2023/12/27 12:40:16;;;;;;;5.38;1.00;;;11.70;99.90;;;;;;4861092;29;20052;-63
2023/12/27 12:42:44;;;;;;;2.05;0.80;;;11.70;99.90;;;;;;4866716;29;20045;-63
2023/12/27 12:45:14;;;;;;;1.20;0.70;;;11.70;99.90;;;;;;4869952;29;20056;-66
2023/12/27 12:47:42;;;;;;;3.85;0.77;;;11.70;99.90;;;;;;4861069;29;21332;-63
2023/12/27 12:50:12;;;;;;;4.88;0.93;;;11.70;99.90;;;;;;4856868;29;20656;-64
2023/12/27 12:52:41;;;;;;;3.23;1.00;;;11.70;99.90;;;;;;4873079;29;20065;-62
2023/12/27 12:55:10;;;;;;;;;;;11.70;99.90;;;;;;4855597;29;20077;-62
2023/12/27 12:57:39;;;;;;;1.95;0.70;;;11.80;99.90;;;;;;4870438;29;19924;-62
2023/12/27 13:00:08;;;;;;;4.97;0.80;;;11.80;99.90;;;;;;4863738;29;20055;-62
2023/12/27 13:02:38;;;;;;;1.75;0.50;;;11.80;99.90;;;;;;4869552;29;20143;-64